SAS4490 ENGM-ENSB
Flight info
| Callsign | SAS4490 |
|---|---|
| Flight time | 2h 38m |
| Altitude | 38000 |
| Route | RIBBE DCT OMEXA DCT SUSES |
| Aircraft | B738/M-SDE2E3FGHIRWXY/LB1 |
Departure
| Time | 2026-05-05 17:31 |
|---|---|
| Airport | Oslo-Gardermoen International Airport (ENGM) |
Arrival
| Time | 2026-05-05 20:09 |
|---|---|
| Airport | Svalbard Airport, Longyear (ENSB) |
| Time | Latitude | Longitude | Altitude | Speed | Heading |
|---|---|---|---|---|---|
| 2026-05-05 17:09 | 60.19390 | 11.10648 | 676 ft | 0 kts | 196° |
| 2026-05-05 17:20 | 60.19398 | 11.10652 | 677 ft | 2 kts | 193° |
| 2026-05-05 17:20 | 60.19413 | 11.10661 | 677 ft | 2 kts | 195° |
| 2026-05-05 17:21 | 60.19429 | 11.10670 | 681 ft | 2 kts | 195° |
| 2026-05-05 17:21 | 60.19445 | 11.10679 | 681 ft | 2 kts | 195° |
| 2026-05-05 17:21 | 60.19457 | 11.10686 | 679 ft | 1 kts | 195° |
| 2026-05-05 17:22 | 60.19458 | 11.10686 | 678 ft | 0 kts | 195° |
| 2026-05-05 17:24 | 60.19451 | 11.10694 | 680 ft | 2 kts | 143° |
| 2026-05-05 17:24 | 60.19455 | 11.10740 | 681 ft | 6 kts | 72° |
| 2026-05-05 17:24 | 60.19470 | 11.10851 | 681 ft | 11 kts | 86° |
| 2026-05-05 17:25 | 60.19449 | 11.11029 | 680 ft | 15 kts | 105° |
| 2026-05-05 17:25 | 60.19427 | 11.11177 | 683 ft | 18 kts | 106° |
| 2026-05-05 17:25 | 60.19288 | 11.11206 | 682 ft | 20 kts | 195° |
| 2026-05-05 17:25 | 60.19148 | 11.11126 | 683 ft | 21 kts | 195° |
| 2026-05-05 17:26 | 60.19005 | 11.11043 | 684 ft | 22 kts | 196° |
| 2026-05-05 17:26 | 60.18851 | 11.10956 | 683 ft | 24 kts | 196° |
| 2026-05-05 17:26 | 60.18684 | 11.10859 | 683 ft | 25 kts | 196° |
| 2026-05-05 17:26 | 60.18522 | 11.10766 | 682 ft | 18 kts | 189° |
| 2026-05-05 17:27 | 60.18453 | 11.10936 | 678 ft | 15 kts | 106° |
| 2026-05-05 17:27 | 60.18441 | 11.11017 | 678 ft | 0 kts | 105° |
| 2026-05-05 17:28 | 60.18441 | 11.11019 | 678 ft | 1 kts | 105° |
| 2026-05-05 17:28 | 60.18438 | 11.11094 | 681 ft | 10 kts | 84° |
| 2026-05-05 17:29 | 60.18439 | 11.11244 | 681 ft | 9 kts | 99° |
| 2026-05-05 17:29 | 60.18459 | 11.11288 | 681 ft | 0 kts | 15° |
| 2026-05-05 17:30 | 60.18508 | 11.11316 | 680 ft | 35 kts | 16° |
| 2026-05-05 17:30 | 60.19012 | 11.11608 | 686 ft | 113 kts | 16° |
| 2026-05-05 17:30 | 60.19984 | 11.12169 | 748 ft | 171 kts | 15° |
| 2026-05-05 17:31 | 60.21187 | 11.12882 | 1439 ft | 187 kts | 16° |
| 2026-05-05 17:31 | 60.22286 | 11.14464 | 2231 ft | 211 kts | 48° |
| 2026-05-05 17:31 | 60.22977 | 11.17256 | 2674 ft | 239 kts | 78° |
| 2026-05-05 17:31 | 60.22826 | 11.20653 | 3414 ft | 248 kts | 99° |
| 2026-05-05 17:32 | 60.22645 | 11.24153 | 4342 ft | 252 kts | 90° |
| 2026-05-05 17:32 | 60.22656 | 11.27662 | 5363 ft | 253 kts | 86° |
| 2026-05-05 17:32 | 60.22748 | 11.31254 | 6226 ft | 258 kts | 86° |
| 2026-05-05 17:32 | 60.23009 | 11.34896 | 6771 ft | 274 kts | 74° |
| 2026-05-05 17:33 | 60.23508 | 11.38638 | 7258 ft | 285 kts | 73° |
| 2026-05-05 17:33 | 60.24032 | 11.42486 | 8267 ft | 285 kts | 73° |
| 2026-05-05 17:33 | 60.24546 | 11.46394 | 9120 ft | 292 kts | 74° |
| 2026-05-05 17:33 | 60.25259 | 11.50244 | 9909 ft | 297 kts | 54° |
| 2026-05-05 17:34 | 60.26732 | 11.53165 | 10404 ft | 307 kts | 26° |
| 2026-05-05 17:34 | 60.28801 | 11.54583 | 10665 ft | 324 kts | 7° |
| 2026-05-05 17:34 | 60.31070 | 11.55394 | 11232 ft | 335 kts | 6° |
| 2026-05-05 17:34 | 60.33383 | 11.56156 | 12087 ft | 339 kts | 6° |
| 2026-05-05 17:35 | 60.35717 | 11.56932 | 12995 ft | 341 kts | 6° |
| 2026-05-05 17:35 | 60.38077 | 11.57738 | 13845 ft | 345 kts | 6° |
| 2026-05-05 17:35 | 60.40461 | 11.58571 | 14572 ft | 351 kts | 5° |
| 2026-05-05 17:35 | 60.42883 | 11.59431 | 15250 ft | 357 kts | 5° |
| 2026-05-05 17:36 | 60.45355 | 11.60317 | 15905 ft | 363 kts | 4° |
| 2026-05-05 17:36 | 60.47859 | 11.61218 | 16609 ft | 368 kts | 4° |
| 2026-05-05 17:36 | 60.50387 | 11.62129 | 17303 ft | 373 kts | 3° |
| 2026-05-05 17:36 | 60.52964 | 11.63074 | 18046 ft | 378 kts | 3° |
| 2026-05-05 17:37 | 60.55527 | 11.64052 | 18780 ft | 379 kts | 4° |
| 2026-05-05 17:37 | 60.57281 | 11.64732 | 19269 ft | 380 kts | 4° |
| 2026-05-05 17:37 | 60.60766 | 11.66079 | 20012 ft | 389 kts | 3° |
| 2026-05-05 17:37 | 60.63474 | 11.67125 | 20555 ft | 394 kts | 2° |
| 2026-05-05 17:38 | 60.66157 | 11.68164 | 21106 ft | 399 kts | 1° |
| 2026-05-05 17:38 | 60.68901 | 11.69226 | 21684 ft | 404 kts | 1° |
| 2026-05-05 17:38 | 60.71675 | 11.70301 | 22227 ft | 409 kts | 1° |
| 2026-05-05 17:38 | 60.74497 | 11.71399 | 22763 ft | 414 kts | 0° |
| 2026-05-05 17:39 | 60.77337 | 11.72505 | 23290 ft | 418 kts | 360° |
| 2026-05-05 17:39 | 60.80219 | 11.73627 | 23745 ft | 423 kts | 360° |
| 2026-05-05 17:39 | 60.83124 | 11.74713 | 24275 ft | 423 kts | 358° |
| 2026-05-05 17:39 | 60.86029 | 11.75201 | 24736 ft | 418 kts | 353° |
| 2026-05-05 17:40 | 60.88947 | 11.75295 | 25203 ft | 419 kts | 351° |
| 2026-05-05 17:40 | 60.91881 | 11.75279 | 25645 ft | 422 kts | 351° |
| 2026-05-05 17:40 | 60.94825 | 11.75279 | 26051 ft | 426 kts | 351° |
| 2026-05-05 17:40 | 60.97802 | 11.75332 | 26480 ft | 429 kts | 352° |
| 2026-05-05 17:41 | 61.00753 | 11.75432 | 26854 ft | 433 kts | 352° |
| 2026-05-05 17:41 | 61.03811 | 11.75568 | 27271 ft | 437 kts | 352° |
| 2026-05-05 17:41 | 61.06867 | 11.75719 | 27652 ft | 440 kts | 352° |
| 2026-05-05 17:41 | 61.09938 | 11.75875 | 28033 ft | 443 kts | 352° |
| 2026-05-05 17:42 | 61.12997 | 11.76028 | 28389 ft | 446 kts | 352° |
| 2026-05-05 17:42 | 61.16110 | 11.76179 | 28737 ft | 449 kts | 352° |
| 2026-05-05 17:42 | 61.19236 | 11.76217 | 29057 ft | 446 kts | 346° |
| 2026-05-05 17:42 | 61.22186 | 11.74740 | 29249 ft | 430 kts | 328° |
| 2026-05-05 17:43 | 61.24753 | 11.71741 | 29784 ft | 413 kts | 315° |
| 2026-05-05 17:43 | 61.26900 | 11.67931 | 30192 ft | 408 kts | 311° |
| 2026-05-05 17:43 | 61.28984 | 11.63972 | 30494 ft | 409 kts | 311° |
| 2026-05-05 17:43 | 61.31113 | 11.59974 | 30713 ft | 413 kts | 311° |
| 2026-05-05 17:44 | 61.33278 | 11.55990 | 30953 ft | 416 kts | 312° |
| 2026-05-05 17:44 | 61.35546 | 11.52256 | 31178 ft | 427 kts | 323° |
| 2026-05-05 17:44 | 61.38326 | 11.49747 | 31451 ft | 442 kts | 336° |
| 2026-05-05 17:44 | 61.41404 | 11.48621 | 31900 ft | 455 kts | 351° |
| 2026-05-05 17:45 | 61.44559 | 11.48785 | 32381 ft | 458 kts | 356° |
| 2026-05-05 17:45 | 61.47754 | 11.49219 | 32622 ft | 462 kts | 357° |
| 2026-05-05 17:45 | 61.50999 | 11.49742 | 32709 ft | 468 kts | 358° |
| 2026-05-05 17:45 | 61.54246 | 11.50277 | 32968 ft | 468 kts | 358° |
| 2026-05-05 17:46 | 61.57493 | 11.50796 | 33405 ft | 465 kts | 358° |
| 2026-05-05 17:46 | 61.60689 | 11.51280 | 33828 ft | 462 kts | 357° |
| 2026-05-05 17:46 | 61.63871 | 11.51735 | 34072 ft | 463 kts | 357° |
| 2026-05-05 17:46 | 61.67106 | 11.52175 | 34233 ft | 465 kts | 357° |
| 2026-05-05 17:47 | 61.70345 | 11.52603 | 34433 ft | 466 kts | 357° |
| 2026-05-05 17:47 | 61.73580 | 11.53031 | 34718 ft | 461 kts | 357° |
| 2026-05-05 17:47 | 61.76734 | 11.53456 | 35038 ft | 452 kts | 358° |
| 2026-05-05 17:47 | 61.79884 | 11.53877 | 35322 ft | 452 kts | 358° |
| 2026-05-05 17:48 | 61.83017 | 11.54288 | 35348 ft | 457 kts | 358° |
| 2026-05-05 17:48 | 61.89460 | 11.55132 | 35460 ft | 465 kts | 358° |
| 2026-05-05 17:48 | 61.92673 | 11.55561 | 35597 ft | 466 kts | 358° |
| 2026-05-05 17:49 | 61.95915 | 11.55999 | 35828 ft | 465 kts | 358° |
| 2026-05-05 17:49 | 61.99147 | 11.56438 | 36098 ft | 463 kts | 358° |
| 2026-05-05 17:49 | 62.02329 | 11.56872 | 36374 ft | 461 kts | 358° |
| 2026-05-05 17:49 | 62.05550 | 11.57312 | 36640 ft | 461 kts | 358° |
| 2026-05-05 17:50 | 62.08724 | 11.57742 | 36733 ft | 464 kts | 358° |
| 2026-05-05 17:50 | 62.15216 | 11.58622 | 37037 ft | 465 kts | 358° |
| 2026-05-05 17:50 | 62.18436 | 11.59064 | 37339 ft | 462 kts | 359° |
| 2026-05-05 17:51 | 62.21628 | 11.59504 | 37565 ft | 461 kts | 359° |
| 2026-05-05 17:51 | 62.24815 | 11.59940 | 37674 ft | 463 kts | 359° |
| 2026-05-05 17:51 | 62.28057 | 11.60384 | 37766 ft | 465 kts | 359° |
| 2026-05-05 17:51 | 62.31262 | 11.60824 | 37922 ft | 465 kts | 359° |
| 2026-05-05 17:52 | 62.33413 | 11.61120 | 37915 ft | 466 kts | 359° |
| 2026-05-05 17:52 | 62.39875 | 11.62017 | 37932 ft | 463 kts | 359° |
| 2026-05-05 17:53 | 62.46302 | 11.62913 | 37940 ft | 461 kts | 359° |
| 2026-05-05 17:53 | 62.52687 | 11.63806 | 37933 ft | 459 kts | 359° |
| 2026-05-05 17:54 | 62.59082 | 11.64702 | 37860 ft | 458 kts | 359° |
| 2026-05-05 17:54 | 62.65427 | 11.65594 | 37886 ft | 458 kts | 359° |
| 2026-05-05 17:55 | 62.71826 | 11.66497 | 37862 ft | 460 kts | 359° |
| 2026-05-05 17:55 | 62.78180 | 11.67398 | 37865 ft | 462 kts | 359° |
| 2026-05-05 17:56 | 62.84605 | 11.68314 | 37880 ft | 464 kts | 359° |
| 2026-05-05 17:56 | 62.91087 | 11.69243 | 37914 ft | 466 kts | 359° |
| 2026-05-05 17:57 | 62.97517 | 11.70167 | 37950 ft | 470 kts | 360° |
| 2026-05-05 17:57 | 63.04093 | 11.71116 | 37943 ft | 474 kts | 360° |
| 2026-05-05 17:58 | 63.10723 | 11.72080 | 37937 ft | 477 kts | 360° |
| 2026-05-05 17:58 | 63.17338 | 11.73047 | 37916 ft | 479 kts | 0° |
| 2026-05-05 17:59 | 63.24013 | 11.74027 | 37930 ft | 479 kts | 360° |
| 2026-05-05 17:59 | 63.30652 | 11.75006 | 37927 ft | 479 kts | 0° |
| 2026-05-05 18:00 | 63.37319 | 11.75993 | 37916 ft | 479 kts | 0° |
| 2026-05-05 18:00 | 63.43910 | 11.76973 | 37921 ft | 477 kts | 0° |
| 2026-05-05 18:01 | 63.50552 | 11.77965 | 37902 ft | 476 kts | 0° |
| 2026-05-05 18:01 | 63.57133 | 11.78952 | 37920 ft | 476 kts | 0° |
| 2026-05-05 18:02 | 63.63743 | 11.79948 | 37883 ft | 476 kts | 0° |
| 2026-05-05 18:02 | 63.70302 | 11.80941 | 37905 ft | 475 kts | 0° |
| 2026-05-05 18:03 | 63.76898 | 11.81944 | 37882 ft | 474 kts | 0° |
| 2026-05-05 18:03 | 63.83478 | 11.82949 | 37886 ft | 474 kts | 0° |
| 2026-05-05 18:04 | 63.90059 | 11.83960 | 37903 ft | 474 kts | 1° |
| 2026-05-05 18:04 | 63.96649 | 11.84976 | 37880 ft | 474 kts | 1° |
| 2026-05-05 18:05 | 64.03218 | 11.85995 | 37886 ft | 474 kts | 1° |
| 2026-05-05 18:05 | 64.09800 | 11.87020 | 37882 ft | 474 kts | 1° |
| 2026-05-05 18:06 | 64.16338 | 11.88043 | 37866 ft | 473 kts | 1° |
| 2026-05-05 18:06 | 64.22916 | 11.89077 | 37857 ft | 473 kts | 1° |
| 2026-05-05 18:07 | 64.29482 | 11.90114 | 37871 ft | 473 kts | 1° |
| 2026-05-05 18:07 | 64.36054 | 11.91157 | 37853 ft | 473 kts | 1° |
| 2026-05-05 18:08 | 64.42637 | 11.92207 | 37862 ft | 473 kts | 1° |
| 2026-05-05 18:08 | 64.49205 | 11.93259 | 37869 ft | 473 kts | 1° |
| 2026-05-05 18:09 | 64.55733 | 11.94310 | 37857 ft | 473 kts | 1° |
| 2026-05-05 18:09 | 64.62310 | 11.95375 | 37859 ft | 473 kts | 1° |
| 2026-05-05 18:10 | 64.68881 | 11.96443 | 37839 ft | 474 kts | 1° |
| 2026-05-05 18:10 | 64.75461 | 11.97518 | 37831 ft | 474 kts | 1° |
| 2026-05-05 18:11 | 64.82039 | 11.98598 | 37850 ft | 474 kts | 1° |
| 2026-05-05 18:11 | 64.88621 | 11.99684 | 37820 ft | 474 kts | 1° |
| 2026-05-05 18:12 | 64.95153 | 12.00768 | 37829 ft | 473 kts | 1° |
| 2026-05-05 18:12 | 65.01739 | 12.01865 | 37816 ft | 473 kts | 1° |
| 2026-05-05 18:13 | 65.08313 | 12.02966 | 37806 ft | 473 kts | 1° |
| 2026-05-05 18:13 | 65.11583 | 12.03516 | 38044 ft | 468 kts | 1° |
| 2026-05-05 18:13 | 65.14808 | 12.04063 | 38367 ft | 463 kts | 1° |
| 2026-05-05 18:13 | 65.17988 | 12.04601 | 38552 ft | 460 kts | 1° |
| 2026-05-05 18:14 | 65.21128 | 12.05134 | 38765 ft | 456 kts | 1° |
| 2026-05-05 18:14 | 65.27519 | 12.06215 | 38751 ft | 460 kts | 1° |
| 2026-05-05 18:15 | 65.33885 | 12.07299 | 38758 ft | 464 kts | 1° |
| 2026-05-05 18:15 | 65.40368 | 12.08411 | 38751 ft | 467 kts | 1° |
| 2026-05-05 18:16 | 65.46840 | 12.09523 | 38775 ft | 470 kts | 2° |
| 2026-05-05 18:16 | 65.53384 | 12.10658 | 38765 ft | 472 kts | 2° |
| 2026-05-05 18:17 | 65.59931 | 12.11799 | 38744 ft | 475 kts | 2° |
| 2026-05-05 18:17 | 65.66547 | 12.12958 | 38742 ft | 476 kts | 2° |
| 2026-05-05 18:18 | 65.73145 | 12.14120 | 38733 ft | 477 kts | 2° |
| 2026-05-05 18:18 | 65.79778 | 12.15295 | 38736 ft | 477 kts | 0° |
| 2026-05-05 18:19 | 65.86371 | 12.16472 | 38726 ft | 476 kts | 2° |
| 2026-05-05 18:19 | 65.92978 | 12.17646 | 38707 ft | 475 kts | 2° |
| 2026-05-05 18:20 | 65.99540 | 12.18829 | 38719 ft | 474 kts | 1° |
| 2026-05-05 18:20 | 66.06136 | 12.20017 | 38710 ft | 474 kts | 2° |
| 2026-05-05 18:21 | 66.12702 | 12.21201 | 38699 ft | 473 kts | 2° |
| 2026-05-05 18:21 | 66.19266 | 12.22400 | 38688 ft | 473 kts | 2° |
| 2026-05-05 18:22 | 66.25838 | 12.23604 | 38678 ft | 472 kts | 1° |
| 2026-05-05 18:22 | 66.32384 | 12.24820 | 38669 ft | 472 kts | 3° |
| 2026-05-05 18:23 | 66.38928 | 12.26028 | 38659 ft | 471 kts | 2° |
| 2026-05-05 18:23 | 66.45450 | 12.27245 | 38669 ft | 471 kts | 2° |
| 2026-05-05 18:24 | 66.52003 | 12.28475 | 38662 ft | 471 kts | 2° |
| 2026-05-05 18:24 | 66.58522 | 12.29697 | 38656 ft | 471 kts | 2° |
| 2026-05-05 18:25 | 66.65060 | 12.30931 | 38662 ft | 471 kts | 2° |
| 2026-05-05 18:25 | 66.71566 | 12.32172 | 38664 ft | 471 kts | 2° |
| 2026-05-05 18:26 | 66.78104 | 12.33426 | 38667 ft | 471 kts | 3° |
| 2026-05-05 18:26 | 66.84668 | 12.34686 | 38662 ft | 472 kts | 2° |
| 2026-05-05 18:27 | 66.91202 | 12.35948 | 38663 ft | 472 kts | 2° |
| 2026-05-05 18:27 | 66.97726 | 12.37215 | 38662 ft | 472 kts | 3° |
| 2026-05-05 18:28 | 67.07570 | 12.39141 | 38678 ft | 472 kts | 3° |
| 2026-05-05 18:28 | 67.14108 | 12.40430 | 38668 ft | 472 kts | 2° |
| 2026-05-05 18:29 | 67.20648 | 12.41726 | 38673 ft | 472 kts | 3° |
| 2026-05-05 18:29 | 67.27184 | 12.43027 | 38672 ft | 472 kts | 3° |
| 2026-05-05 18:30 | 67.33775 | 12.44346 | 38678 ft | 472 kts | 3° |
| 2026-05-05 18:30 | 67.40313 | 12.45662 | 38679 ft | 472 kts | 3° |
| 2026-05-05 18:31 | 67.46855 | 12.46987 | 38678 ft | 472 kts | 3° |
| 2026-05-05 18:31 | 67.53400 | 12.48320 | 38679 ft | 472 kts | 3° |
| 2026-05-05 18:32 | 67.59938 | 12.49658 | 38679 ft | 472 kts | 3° |
| 2026-05-05 18:32 | 67.66485 | 12.51006 | 38679 ft | 472 kts | 3° |
| 2026-05-05 18:33 | 67.73017 | 12.52358 | 38695 ft | 472 kts | 3° |
| 2026-05-05 18:33 | 67.79596 | 12.53727 | 38682 ft | 472 kts | 3° |
| 2026-05-05 18:34 | 67.86123 | 12.55093 | 38686 ft | 472 kts | 3° |
| 2026-05-05 18:34 | 67.92674 | 12.56472 | 38683 ft | 472 kts | 3° |
| 2026-05-05 18:35 | 67.99209 | 12.57856 | 38688 ft | 472 kts | 3° |
| 2026-05-05 18:35 | 68.05758 | 12.59250 | 38701 ft | 472 kts | 3° |
| 2026-05-05 18:36 | 68.12285 | 12.60649 | 38690 ft | 472 kts | 3° |
| 2026-05-05 18:36 | 68.18857 | 12.62065 | 38690 ft | 472 kts | 4° |
| 2026-05-05 18:37 | 68.25387 | 12.63484 | 38694 ft | 472 kts | 3° |
| 2026-05-05 18:37 | 68.31922 | 12.64905 | 38694 ft | 472 kts | 3° |
| 2026-05-05 18:38 | 68.38468 | 12.66334 | 38698 ft | 472 kts | 4° |
| 2026-05-05 18:38 | 68.44986 | 12.67772 | 38695 ft | 472 kts | 3° |
| 2026-05-05 18:39 | 68.51513 | 12.69215 | 38701 ft | 470 kts | 2° |
| 2026-05-05 18:39 | 68.58060 | 12.70679 | 38698 ft | 470 kts | 4° |
| 2026-05-05 18:40 | 68.64562 | 12.72140 | 38697 ft | 469 kts | 4° |
| 2026-05-05 18:40 | 68.71043 | 12.73598 | 38700 ft | 468 kts | 4° |
| 2026-05-05 18:41 | 68.77523 | 12.75070 | 38698 ft | 468 kts | 4° |
| 2026-05-05 18:41 | 68.84013 | 12.76555 | 38704 ft | 467 kts | 4° |
| 2026-05-05 18:42 | 68.90482 | 12.78036 | 38699 ft | 467 kts | 2° |
| 2026-05-05 18:42 | 68.96988 | 12.79535 | 38710 ft | 467 kts | 4° |
| 2026-05-05 18:43 | 69.03462 | 12.81014 | 38710 ft | 467 kts | 2° |
| 2026-05-05 18:43 | 69.09937 | 12.82092 | 38721 ft | 467 kts | 2° |
| 2026-05-05 18:44 | 69.15339 | 12.82863 | 38708 ft | 467 kts | 2° |
| 2026-05-05 18:44 | 69.21817 | 12.83818 | 38724 ft | 467 kts | 2° |
| 2026-05-05 18:45 | 69.28295 | 12.84824 | 38715 ft | 467 kts | 2° |
| 2026-05-05 18:45 | 69.34805 | 12.85863 | 38722 ft | 467 kts | 2° |
| 2026-05-05 18:46 | 69.41276 | 12.86905 | 38727 ft | 467 kts | 3° |
| 2026-05-05 18:46 | 69.47751 | 12.87946 | 38728 ft | 467 kts | 3° |
| 2026-05-05 18:47 | 69.54267 | 12.88999 | 38729 ft | 467 kts | 2° |
| 2026-05-05 18:47 | 69.60738 | 12.90057 | 38728 ft | 467 kts | 2° |
| 2026-05-05 18:48 | 69.67221 | 12.91124 | 38732 ft | 467 kts | 2° |
| 2026-05-05 18:48 | 69.73682 | 12.92190 | 38755 ft | 466 kts | 3° |
| 2026-05-05 18:49 | 69.80193 | 12.93273 | 38741 ft | 467 kts | 3° |
| 2026-05-05 18:49 | 69.86670 | 12.94356 | 38748 ft | 467 kts | 3° |
| 2026-05-05 18:50 | 69.93145 | 12.95446 | 38755 ft | 466 kts | 3° |
| 2026-05-05 18:50 | 69.99618 | 12.96542 | 38748 ft | 467 kts | 3° |
| 2026-05-05 18:51 | 70.06111 | 12.97648 | 38753 ft | 466 kts | 3° |
| 2026-05-05 18:51 | 70.12580 | 12.98758 | 38757 ft | 466 kts | 3° |
| 2026-05-05 18:52 | 70.19054 | 12.99875 | 38758 ft | 466 kts | 3° |
| 2026-05-05 18:52 | 70.25515 | 13.00997 | 38759 ft | 466 kts | 3° |
| 2026-05-05 18:53 | 70.32016 | 13.02133 | 38760 ft | 466 kts | 3° |
| 2026-05-05 18:53 | 70.38487 | 13.03271 | 38758 ft | 466 kts | 3° |
| 2026-05-05 18:54 | 70.44938 | 13.04412 | 38767 ft | 465 kts | 4° |
| 2026-05-05 18:54 | 70.51403 | 13.05564 | 38773 ft | 465 kts | 4° |
| 2026-05-05 18:55 | 70.57825 | 13.06715 | 38780 ft | 464 kts | 4° |
| 2026-05-05 18:55 | 70.64250 | 13.07873 | 38782 ft | 462 kts | 4° |
| 2026-05-05 18:56 | 70.70662 | 13.09038 | 38772 ft | 462 kts | 4° |
| 2026-05-05 18:56 | 70.77085 | 13.10212 | 38770 ft | 461 kts | 4° |
| 2026-05-05 18:57 | 70.83486 | 13.11388 | 38791 ft | 461 kts | 4° |
| 2026-05-05 18:57 | 70.89882 | 13.12572 | 38794 ft | 460 kts | 4° |
| 2026-05-05 18:58 | 70.96272 | 13.13763 | 38783 ft | 461 kts | 4° |
| 2026-05-05 18:58 | 71.02691 | 13.14968 | 38778 ft | 462 kts | 4° |
| 2026-05-05 18:59 | 71.09118 | 13.16180 | 38795 ft | 462 kts | 4° |
| 2026-05-05 18:59 | 71.15526 | 13.17397 | 38795 ft | 462 kts | 4° |
| 2026-05-05 19:00 | 71.21939 | 13.18626 | 38784 ft | 463 kts | 4° |
| 2026-05-05 19:00 | 71.28337 | 13.19853 | 38793 ft | 462 kts | 4° |
| 2026-05-05 19:01 | 71.34780 | 13.21096 | 38821 ft | 462 kts | 4° |
| 2026-05-05 19:01 | 71.41188 | 13.22353 | 38808 ft | 462 kts | 4° |
| 2026-05-05 19:02 | 71.47584 | 13.23611 | 38801 ft | 462 kts | 4° |
| 2026-05-05 19:02 | 71.54007 | 13.24881 | 38819 ft | 461 kts | 4° |
| 2026-05-05 19:03 | 71.60408 | 13.26148 | 38825 ft | 460 kts | 5° |
| 2026-05-05 19:03 | 71.66792 | 13.27429 | 38820 ft | 461 kts | 5° |
| 2026-05-05 19:04 | 71.73207 | 13.28727 | 38829 ft | 460 kts | 4° |
| 2026-05-05 19:04 | 71.79591 | 13.30030 | 38837 ft | 460 kts | 5° |
| 2026-05-05 19:05 | 71.85947 | 13.31322 | 38835 ft | 460 kts | 4° |
| 2026-05-05 19:05 | 71.92339 | 13.32630 | 38831 ft | 460 kts | 4° |
| 2026-05-05 19:06 | 71.98709 | 13.33957 | 38837 ft | 460 kts | 5° |
| 2026-05-05 19:06 | 72.05106 | 13.35296 | 38846 ft | 460 kts | 5° |
| 2026-05-05 19:07 | 72.11477 | 13.36629 | 38847 ft | 460 kts | 5° |
| 2026-05-05 19:07 | 72.17863 | 13.37980 | 38852 ft | 460 kts | 4° |
| 2026-05-05 19:08 | 72.24248 | 13.39331 | 38871 ft | 460 kts | 5° |
| 2026-05-05 19:08 | 72.30657 | 13.40708 | 38868 ft | 460 kts | 5° |
| 2026-05-05 19:09 | 72.37033 | 13.42092 | 38867 ft | 460 kts | 5° |
| 2026-05-05 19:09 | 72.43400 | 13.43481 | 38876 ft | 460 kts | 5° |
| 2026-05-05 19:10 | 72.49800 | 13.44890 | 38869 ft | 460 kts | 5° |
| 2026-05-05 19:10 | 72.56151 | 13.46289 | 38868 ft | 459 kts | 5° |
| 2026-05-05 19:11 | 72.62555 | 13.47712 | 38877 ft | 459 kts | 5° |
| 2026-05-05 19:11 | 72.68905 | 13.49138 | 38895 ft | 458 kts | 5° |
| 2026-05-05 19:12 | 72.75269 | 13.50579 | 38892 ft | 459 kts | 5° |
| 2026-05-05 19:12 | 72.81626 | 13.52021 | 38890 ft | 459 kts | 5° |
| 2026-05-05 19:13 | 72.87987 | 13.53475 | 38899 ft | 459 kts | 5° |
| 2026-05-05 19:13 | 72.94362 | 13.54939 | 38910 ft | 459 kts | 5° |
| 2026-05-05 19:14 | 73.00725 | 13.56412 | 38904 ft | 460 kts | 5° |
| 2026-05-05 19:14 | 73.07103 | 13.57902 | 38914 ft | 460 kts | 4° |
| 2026-05-05 19:15 | 73.13475 | 13.59408 | 38920 ft | 459 kts | 5° |
| 2026-05-05 19:15 | 73.19886 | 13.60919 | 38912 ft | 460 kts | 5° |
| 2026-05-05 19:16 | 73.26245 | 13.62449 | 38918 ft | 460 kts | 5° |
| 2026-05-05 19:16 | 73.32621 | 13.63975 | 38931 ft | 459 kts | 5° |
| 2026-05-05 19:17 | 73.38987 | 13.65515 | 38940 ft | 460 kts | 6° |
| 2026-05-05 19:17 | 73.45387 | 13.67088 | 38927 ft | 460 kts | 5° |
| 2026-05-05 19:18 | 73.51755 | 13.68658 | 38944 ft | 460 kts | 5° |
| 2026-05-05 19:18 | 73.58132 | 13.70238 | 38937 ft | 460 kts | 5° |
| 2026-05-05 19:19 | 73.64551 | 13.71835 | 38941 ft | 460 kts | 5° |
| 2026-05-05 19:19 | 73.70919 | 13.73445 | 38943 ft | 460 kts | 5° |
| 2026-05-05 19:20 | 73.77299 | 13.75064 | 38962 ft | 460 kts | 5° |
| 2026-05-05 19:20 | 73.83680 | 13.76705 | 38962 ft | 460 kts | 6° |
| 2026-05-05 19:21 | 73.90057 | 13.78341 | 38958 ft | 460 kts | 5° |
| 2026-05-05 19:21 | 73.96443 | 13.80002 | 38967 ft | 460 kts | 5° |
| 2026-05-05 19:22 | 74.02824 | 13.81668 | 38968 ft | 460 kts | 5° |
| 2026-05-05 19:22 | 74.09212 | 13.83351 | 38966 ft | 460 kts | 5° |
| 2026-05-05 19:23 | 74.15599 | 13.85041 | 38970 ft | 460 kts | 5° |
| 2026-05-05 19:23 | 74.21994 | 13.86759 | 38976 ft | 460 kts | 5° |
| 2026-05-05 19:24 | 74.28378 | 13.88489 | 38980 ft | 460 kts | 6° |
| 2026-05-05 19:24 | 74.34758 | 13.90221 | 38978 ft | 460 kts | 4° |
| 2026-05-05 19:25 | 74.41142 | 13.90530 | 38995 ft | 461 kts | 359° |
| 2026-05-05 19:25 | 74.47570 | 13.89825 | 38998 ft | 461 kts | 360° |
| 2026-05-05 19:26 | 74.53964 | 13.89149 | 38984 ft | 461 kts | 360° |
| 2026-05-05 19:26 | 74.60382 | 13.88642 | 38989 ft | 461 kts | 0° |
| 2026-05-05 19:27 | 74.66793 | 13.88209 | 38991 ft | 460 kts | 0° |
| 2026-05-05 19:27 | 74.73173 | 13.87804 | 38987 ft | 460 kts | 0° |
| 2026-05-05 19:28 | 74.79593 | 13.87386 | 39017 ft | 460 kts | 0° |
| 2026-05-05 19:28 | 74.85972 | 13.86963 | 39018 ft | 460 kts | 0° |
| 2026-05-05 19:29 | 74.92369 | 13.86536 | 38999 ft | 460 kts | 0° |
| 2026-05-05 19:29 | 74.98790 | 13.86110 | 39022 ft | 460 kts | 0° |
| 2026-05-05 19:30 | 75.05200 | 13.85672 | 39017 ft | 460 kts | 360° |
| 2026-05-05 19:30 | 75.11576 | 13.85241 | 39011 ft | 461 kts | 1° |
| 2026-05-05 19:31 | 75.17979 | 13.84803 | 39030 ft | 460 kts | 0° |
| 2026-05-05 19:31 | 75.24396 | 13.84350 | 39023 ft | 461 kts | 360° |
| 2026-05-05 19:32 | 75.30801 | 13.83901 | 39013 ft | 461 kts | 360° |
| 2026-05-05 19:32 | 75.37218 | 13.83445 | 39033 ft | 460 kts | 0° |
| 2026-05-05 19:33 | 75.43631 | 13.82977 | 39041 ft | 461 kts | 359° |
| 2026-05-05 19:33 | 75.49986 | 13.82507 | 39029 ft | 461 kts | 0° |
| 2026-05-05 19:34 | 75.56387 | 13.82045 | 39052 ft | 460 kts | 0° |
| 2026-05-05 19:35 | 75.65988 | 13.81333 | 39068 ft | 461 kts | 360° |
| 2026-05-05 19:35 | 75.71336 | 13.80933 | 39049 ft | 461 kts | 360° |
| 2026-05-05 19:36 | 75.77742 | 13.80458 | 39060 ft | 461 kts | 0° |
| 2026-05-05 19:36 | 75.84165 | 13.79976 | 39078 ft | 461 kts | 360° |
| 2026-05-05 19:37 | 75.90563 | 13.79478 | 39072 ft | 461 kts | 360° |
| 2026-05-05 19:37 | 75.96959 | 13.78998 | 39076 ft | 461 kts | 0° |
| 2026-05-05 19:38 | 76.03393 | 13.78508 | 39068 ft | 461 kts | 0° |
| 2026-05-05 19:38 | 76.09812 | 13.77997 | 39083 ft | 461 kts | 360° |
| 2026-05-05 19:39 | 76.16214 | 13.77491 | 39104 ft | 461 kts | 0° |
| 2026-05-05 19:39 | 76.22642 | 13.76970 | 39094 ft | 461 kts | 0° |
| 2026-05-05 19:40 | 76.29059 | 13.76452 | 39110 ft | 461 kts | 0° |
| 2026-05-05 19:40 | 76.35439 | 13.75935 | 39115 ft | 461 kts | 0° |
| 2026-05-05 19:41 | 76.41857 | 13.75406 | 39110 ft | 461 kts | 360° |
| 2026-05-05 19:41 | 76.48271 | 13.74876 | 38640 ft | 458 kts | 0° |
| 2026-05-05 19:41 | 76.51476 | 13.74613 | 37803 ft | 461 kts | 360° |
| 2026-05-05 19:42 | 76.54674 | 13.74344 | 37297 ft | 456 kts | 0° |
| 2026-05-05 19:42 | 76.57803 | 13.74074 | 36911 ft | 449 kts | 0° |
| 2026-05-05 19:42 | 76.60915 | 13.73799 | 36258 ft | 445 kts | 0° |
| 2026-05-05 19:42 | 76.63983 | 13.73538 | 35408 ft | 443 kts | 0° |
| 2026-05-05 19:43 | 76.67060 | 13.73279 | 34790 ft | 435 kts | 1° |
| 2026-05-05 19:43 | 76.70053 | 13.73024 | 34126 ft | 429 kts | 360° |
| 2026-05-05 19:43 | 76.73035 | 13.72771 | 33259 ft | 426 kts | 0° |
| 2026-05-05 19:43 | 76.75967 | 13.72509 | 32624 ft | 416 kts | 1° |
| 2026-05-05 19:44 | 76.78841 | 13.72250 | 31846 ft | 412 kts | 1° |
| 2026-05-05 19:44 | 76.81694 | 13.72004 | 31114 ft | 407 kts | 1° |
| 2026-05-05 19:44 | 76.84483 | 13.71756 | 30639 ft | 396 kts | 1° |
| 2026-05-05 19:44 | 76.87195 | 13.71519 | 30046 ft | 388 kts | 1° |
| 2026-05-05 19:45 | 76.89874 | 13.71294 | 29388 ft | 386 kts | 0° |
| 2026-05-05 19:45 | 76.92546 | 13.71065 | 28853 ft | 383 kts | 1° |
| 2026-05-05 19:45 | 76.95198 | 13.70826 | 28431 ft | 376 kts | 0° |
| 2026-05-05 19:45 | 76.97771 | 13.70595 | 27952 ft | 372 kts | 0° |
| 2026-05-05 19:46 | 77.00354 | 13.70367 | 27552 ft | 366 kts | 1° |
| 2026-05-05 19:46 | 77.02880 | 13.70137 | 27087 ft | 363 kts | 1° |
| 2026-05-05 19:46 | 77.05358 | 13.69914 | 26723 ft | 357 kts | 0° |
| 2026-05-05 19:46 | 77.07828 | 13.69689 | 26240 ft | 355 kts | 0° |
| 2026-05-05 19:47 | 77.10288 | 13.69465 | 25878 ft | 349 kts | 0° |
| 2026-05-05 19:47 | 77.12718 | 13.69239 | 25428 ft | 347 kts | 0° |
| 2026-05-05 19:47 | 77.15099 | 13.69022 | 25039 ft | 343 kts | 0° |
| 2026-05-05 19:47 | 77.17402 | 13.68812 | 24639 ft | 340 kts | 360° |
| 2026-05-05 19:48 | 77.19770 | 13.68592 | 24224 ft | 337 kts | 360° |
| 2026-05-05 19:48 | 77.22106 | 13.68375 | 23844 ft | 333 kts | 0° |
| 2026-05-05 19:48 | 77.24391 | 13.68162 | 23360 ft | 331 kts | 1° |
| 2026-05-05 19:48 | 77.26675 | 13.67945 | 22969 ft | 327 kts | 1° |
| 2026-05-05 19:49 | 77.28940 | 13.67733 | 22527 ft | 323 kts | 1° |
| 2026-05-05 19:49 | 77.31175 | 13.67522 | 22160 ft | 318 kts | 1° |
| 2026-05-05 19:49 | 77.33372 | 13.67313 | 21791 ft | 314 kts | 1° |
| 2026-05-05 19:49 | 77.35569 | 13.67109 | 21399 ft | 315 kts | 1° |
| 2026-05-05 19:50 | 77.37767 | 13.66903 | 21015 ft | 318 kts | 1° |
| 2026-05-05 19:50 | 77.39968 | 13.66699 | 20620 ft | 321 kts | 1° |
| 2026-05-05 19:50 | 77.42230 | 13.66485 | 20224 ft | 324 kts | 1° |
| 2026-05-05 19:50 | 77.44492 | 13.66268 | 19808 ft | 321 kts | 1° |
| 2026-05-05 19:51 | 77.46688 | 13.66051 | 19412 ft | 317 kts | 2° |
| 2026-05-05 19:51 | 77.48894 | 13.65834 | 19028 ft | 313 kts | 2° |
| 2026-05-05 19:51 | 77.51070 | 13.65619 | 18626 ft | 310 kts | 2° |
| 2026-05-05 19:51 | 77.53198 | 13.65411 | 18212 ft | 307 kts | 2° |
| 2026-05-05 19:52 | 77.55325 | 13.65202 | 17802 ft | 302 kts | 2° |
| 2026-05-05 19:52 | 77.57416 | 13.64996 | 17429 ft | 298 kts | 2° |
| 2026-05-05 19:52 | 77.59471 | 13.64792 | 17031 ft | 294 kts | 2° |
| 2026-05-05 19:52 | 77.61508 | 13.64591 | 16681 ft | 289 kts | 2° |
| 2026-05-05 19:53 | 77.63485 | 13.64395 | 16286 ft | 286 kts | 2° |
| 2026-05-05 19:53 | 77.65465 | 13.64198 | 15951 ft | 282 kts | 2° |
| 2026-05-05 19:53 | 77.67425 | 13.64004 | 15551 ft | 280 kts | 2° |
| 2026-05-05 19:53 | 77.69343 | 13.63813 | 15231 ft | 276 kts | 2° |
| 2026-05-05 19:54 | 77.71274 | 13.63623 | 14832 ft | 279 kts | 2° |
| 2026-05-05 19:54 | 77.73238 | 13.63432 | 14513 ft | 283 kts | 2° |
| 2026-05-05 19:54 | 77.75209 | 13.63243 | 14092 ft | 289 kts | 2° |
| 2026-05-05 19:54 | 77.77218 | 13.63039 | 13719 ft | 286 kts | 2° |
| 2026-05-05 19:55 | 77.79191 | 13.62835 | 13305 ft | 283 kts | 2° |
| 2026-05-05 19:55 | 77.81124 | 13.62632 | 12962 ft | 277 kts | 2° |
| 2026-05-05 19:55 | 77.83057 | 13.62432 | 12588 ft | 274 kts | 2° |
| 2026-05-05 19:55 | 77.84947 | 13.62236 | 12212 ft | 271 kts | 2° |
| 2026-05-05 19:56 | 77.86819 | 13.62043 | 11883 ft | 266 kts | 2° |
| 2026-05-05 19:56 | 77.88659 | 13.61854 | 11482 ft | 265 kts | 2° |
| 2026-05-05 19:56 | 77.90483 | 13.61665 | 11173 ft | 261 kts | 2° |
| 2026-05-05 19:56 | 77.92301 | 13.61479 | 10802 ft | 260 kts | 2° |
| 2026-05-05 19:57 | 77.94079 | 13.61295 | 10460 ft | 260 kts | 2° |
| 2026-05-05 19:57 | 77.95896 | 13.61107 | 10373 ft | 257 kts | 2° |
| 2026-05-05 19:57 | 77.97700 | 13.60920 | 10226 ft | 258 kts | 2° |
| 2026-05-05 19:57 | 77.99448 | 13.60734 | 10004 ft | 252 kts | 2° |
| 2026-05-05 19:58 | 78.01203 | 13.60549 | 9698 ft | 247 kts | 2° |
| 2026-05-05 19:58 | 78.02898 | 13.60368 | 9328 ft | 246 kts | 2° |
| 2026-05-05 19:58 | 78.04594 | 13.60186 | 9104 ft | 240 kts | 2° |
| 2026-05-05 19:58 | 78.06230 | 13.60762 | 8741 ft | 235 kts | 20° |
| 2026-05-05 19:59 | 78.07679 | 13.63881 | 8615 ft | 224 kts | 29° |
| 2026-05-05 19:59 | 78.09066 | 13.67588 | 8332 ft | 228 kts | 31° |
| 2026-05-05 19:59 | 78.10467 | 13.71436 | 7988 ft | 237 kts | 31° |
| 2026-05-05 19:59 | 78.11815 | 13.76007 | 7723 ft | 236 kts | 41° |
| 2026-05-05 20:00 | 78.13026 | 13.81373 | 7329 ft | 235 kts | 43° |
| 2026-05-05 20:00 | 78.14212 | 13.86821 | 6885 ft | 235 kts | 44° |
| 2026-05-05 20:00 | 78.15394 | 13.92234 | 6551 ft | 234 kts | 44° |
| 2026-05-05 20:00 | 78.16584 | 13.97647 | 6222 ft | 232 kts | 43° |
| 2026-05-05 20:01 | 78.17750 | 14.02924 | 5876 ft | 230 kts | 43° |
| 2026-05-05 20:01 | 78.18929 | 14.08242 | 5538 ft | 229 kts | 43° |
| 2026-05-05 20:01 | 78.20099 | 14.13513 | 5219 ft | 227 kts | 43° |
| 2026-05-05 20:01 | 78.21232 | 14.18618 | 5063 ft | 218 kts | 43° |
| 2026-05-05 20:02 | 78.22318 | 14.23516 | 4944 ft | 209 kts | 43° |
| 2026-05-05 20:02 | 78.23368 | 14.28248 | 4824 ft | 200 kts | 43° |
| 2026-05-05 20:02 | 78.24355 | 14.32701 | 4717 ft | 190 kts | 43° |
| 2026-05-05 20:02 | 78.25329 | 14.37116 | 4474 ft | 187 kts | 43° |
| 2026-05-05 20:03 | 78.26269 | 14.41389 | 4267 ft | 186 kts | 43° |
| 2026-05-05 20:03 | 78.27218 | 14.45715 | 4014 ft | 184 kts | 43° |
| 2026-05-05 20:03 | 78.28151 | 14.49970 | 3774 ft | 182 kts | 43° |
| 2026-05-05 20:03 | 78.29045 | 14.54290 | 3519 ft | 180 kts | 54° |
| 2026-05-05 20:04 | 78.29300 | 14.60063 | 3331 ft | 177 kts | 99° |
| 2026-05-05 20:04 | 78.28988 | 14.65888 | 3200 ft | 176 kts | 98° |
| 2026-05-05 20:04 | 78.28703 | 14.71596 | 3129 ft | 171 kts | 99° |
| 2026-05-05 20:04 | 78.28401 | 14.77254 | 3105 ft | 170 kts | 100° |
| 2026-05-05 20:05 | 78.28084 | 14.83185 | 2576 ft | 186 kts | 101° |
| 2026-05-05 20:05 | 78.27763 | 14.89098 | 2400 ft | 173 kts | 101° |
| 2026-05-05 20:05 | 78.27477 | 14.94488 | 2259 ft | 153 kts | 96° |
| 2026-05-05 20:05 | 78.27268 | 14.99444 | 2011 ft | 141 kts | 98° |
| 2026-05-05 20:06 | 78.27029 | 15.03988 | 1791 ft | 138 kts | 100° |
| 2026-05-05 20:06 | 78.26773 | 15.08517 | 1563 ft | 135 kts | 101° |
| 2026-05-05 20:06 | 78.26531 | 15.12715 | 1360 ft | 127 kts | 102° |
| 2026-05-05 20:06 | 78.26293 | 15.16872 | 1138 ft | 126 kts | 103° |
| 2026-05-05 20:07 | 78.26058 | 15.20991 | 959 ft | 128 kts | 105° |
| 2026-05-05 20:07 | 78.25823 | 15.25120 | 798 ft | 122 kts | 105° |
| 2026-05-05 20:07 | 78.25599 | 15.29068 | 648 ft | 122 kts | 106° |
| 2026-05-05 20:07 | 78.25366 | 15.33112 | 488 ft | 120 kts | 107° |
| 2026-05-05 20:08 | 78.25129 | 15.37093 | 352 ft | 123 kts | 105° |
| 2026-05-05 20:08 | 78.24916 | 15.41104 | 146 ft | 123 kts | 105° |
| 2026-05-05 20:08 | 78.24699 | 15.44987 | 95 ft | 106 kts | 106° |
| 2026-05-05 20:08 | 78.24543 | 15.47790 | 90 ft | 63 kts | 105° |
| 2026-05-05 20:09 | 78.24479 | 15.48938 | 87 ft | 12 kts | 105° |
| 2026-05-05 20:09 | 78.24469 | 15.49337 | 87 ft | 11 kts | 62° |
| 2026-05-05 20:09 | 78.24534 | 15.49457 | 88 ft | 10 kts | 352° |
| 2026-05-05 20:09 | 78.24583 | 15.49248 | 87 ft | 9 kts | 316° |
| 2026-05-05 20:10 | 78.24626 | 15.49181 | 87 ft | 7 kts | 41° |
| 2026-05-05 20:10 | 78.24624 | 15.49357 | 88 ft | 5 kts | 104° |
| 2026-05-05 20:10 | 78.24622 | 15.49403 | 89 ft | 0 kts | 104° |